Time;durP1;ratioP1;P1;durP2;ratioP2;P2;SDS_P1;SDS_P2;PMS_P1;PMS_P2;Temp;Humidity;BMP_temperature;BMP_pressure;BME280_temperature;BME280_humidity;BME280_pressure;Samples;Min_cycle;Max_cycle;Signal;HPM_P1;HPM_P2
2021/06/19 00:00:22;;;;;;;28.92;13.20;;;;;;;;;;4943162;28;20085;-56
2021/06/19 00:02:48;;;;;;;23.85;12.75;;;;;;;;;;4929367;28;20044;-56
2021/06/19 00:05:14;;;;;;;26.77;12.52;;;;;;;;;;4945978;28;20026;-57
2021/06/19 00:07:43;;;;;;;19.77;13.05;;;;;;;;;;4945554;28;20052;-56
2021/06/19 00:10:09;;;;;;;25.38;13.73;;;;;;;;;;4944066;28;20035;-58
2021/06/19 00:15:35;;;;;;;23.20;12.75;;;;;;;;;;4908136;29;20063;-57
2021/06/19 00:18:00;;;;;;;25.58;13.23;;;;;;;;;;4908105;29;20435;-57
2021/06/19 00:20:26;;;;;;;26.63;14.25;;;;;;;;;;4892541;29;20039;-56
2021/06/19 00:22:52;;;;;;;19.58;12.38;;;;;;;;;;4910944;29;20118;-56
2021/06/19 00:25:18;;;;;;;25.98;12.90;;;;;;;;;;4909355;29;20044;-56
2021/06/19 00:27:46;;;;;;;22.85;12.77;;;;;;;;;;4909292;29;20052;-57
2021/06/19 00:30:13;;;;;;;19.90;12.55;;;;;;;;;;4909173;29;20035;-56
2021/06/19 00:32:38;;;;;;;18.67;12.30;;;;;;;;;;4909016;29;21379;-56
2021/06/19 00:35:10;;;;;;;22.25;11.63;;;;;;;;;;4891353;29;20178;-56
2021/06/19 00:37:35;;;;;;;19.98;11.90;;;;;;;;;;4908656;29;20043;-57
2021/06/19 00:40:05;;;;;;;20.65;12.77;;;;;;;;;;4909543;29;20086;-56
2021/06/19 00:42:35;;;;;;;23.90;12.18;;;;;;;;;;4909567;29;20063;-55
2021/06/19 00:45:03;;;;;;;22.73;12.60;;;;;;;;;;4908811;29;20052;-57
2021/06/19 00:47:29;;;;;;;23.10;11.95;;;;;;;;;;4908529;29;20031;-57
2021/06/19 00:49:59;;;;;;;21.10;12.60;;;;;;;;;;4910387;29;20058;-56
2021/06/19 00:52:27;;;;;;;23.05;14.20;;;;;;;;;;4908714;29;22445;-56
2021/06/19 00:54:54;;;;;;;21.73;13.15;;;;;;;;;;4894894;29;20039;-56
2021/06/19 00:57:20;;;;;;;22.17;13.15;;;;;;;;;;4910710;29;20559;-56
2021/06/19 00:59:48;;;;;;;19.38;12.65;;;;;;;;;;4908133;29;20075;-56
2021/06/19 01:02:18;;;;;;;21.38;13.25;;;;;;;;;;4907450;29;20083;-57
2021/06/19 01:04:48;;;;;;;24.30;13.90;;;;;;;;;;4907722;29;20040;-56
2021/06/19 01:07:16;;;;;;;24.05;12.52;;;;;;;;;;4908814;29;20047;-56
2021/06/19 01:09:41;;;;;;;16.83;11.68;;;;;;;;;;4908821;29;20053;-57
2021/06/19 01:12:07;;;;;;;25.52;14.18;;;;;;;;;;4909235;29;20471;-56
2021/06/19 01:14:32;;;;;;;20.65;11.85;;;;;;;;;;4893316;29;20071;-57
2021/06/19 01:17:03;;;;;;;22.23;13.32;;;;;;;;;;4889220;29;20040;-56
2021/06/19 01:19:31;;;;;;;19.50;12.82;;;;;;;;;;4888759;29;20032;-57
2021/06/19 01:21:58;;;;;;;20.70;12.68;;;;;;;;;;4890788;29;20055;-56
2021/06/19 01:24:26;;;;;;;21.67;13.52;;;;;;;;;;4889186;29;20040;-57
2021/06/19 01:26:52;;;;;;;21.25;12.50;;;;;;;;;;4887557;29;20043;-57
2021/06/19 01:29:18;;;;;;;19.15;12.80;;;;;;;;;;4888629;29;20036;-58
2021/06/19 01:31:44;;;;;;;24.45;13.65;;;;;;;;;;4890995;29;20028;-56
2021/06/19 01:34:09;;;;;;;23.63;13.18;;;;;;;;;;4889629;29;20718;-57
2021/06/19 01:36:35;;;;;;;23.40;13.68;;;;;;;;;;4887894;29;20074;-57
2021/06/19 01:39:03;;;;;;;22.15;13.60;;;;;;;;;;4887295;29;20040;-58
2021/06/19 01:41:29;;;;;;;21.52;12.45;;;;;;;;;;4889341;29;20103;-57
2021/06/19 01:44:00;;;;;;;21.67;13.93;;;;;;;;;;4887347;29;20039;-57
2021/06/19 01:46:26;;;;;;;21.85;13.82;;;;;;;;;;4871131;29;20213;-57
2021/06/19 01:48:51;;;;;;;24.67;12.45;;;;;;;;;;4873427;29;20036;-56
2021/06/19 01:51:22;;;;;;;24.95;12.82;;;;;;;;;;4873344;29;20040;-57
2021/06/19 01:53:52;;;;;;;18.02;12.10;;;;;;;;;;4888123;29;20040;-56
2021/06/19 01:56:18;;;;;;;25.05;13.65;;;;;;;;;;4887359;29;20043;-57
2021/06/19 01:58:48;;;;;;;23.90;12.98;;;;;;;;;;4870022;29;20044;-57
2021/06/19 02:01:15;;;;;;;21.17;12.65;;;;;;;;;;4889870;29;20099;-55
2021/06/19 02:03:46;;;;;;;23.13;12.60;;;;;;;;;;4887609;29;20040;-56
2021/06/19 02:06:14;;;;;;;28.80;14.50;;;;;;;;;;4872910;29;20024;-58
2021/06/19 02:08:40;;;;;;;21.27;13.70;;;;;;;;;;4888197;29;20338;-56
2021/06/19 02:11:07;;;;;;;18.45;12.27;;;;;;;;;;4888191;29;20059;-57
2021/06/19 02:13:33;;;;;;;22.13;13.75;;;;;;;;;;4871669;29;20059;-58
2021/06/19 02:16:01;;;;;;;25.85;15.65;;;;;;;;;;4887505;29;20047;-58
2021/06/19 02:18:29;;;;;;;25.13;14.82;;;;;;;;;;4885790;29;20044;-57
2021/06/19 02:20:59;;;;;;;24.70;15.27;;;;;;;;;;4890083;29;20269;-58
2021/06/19 02:23:29;;;;;;;26.65;14.93;;;;;;;;;;4891553;29;20036;-56
2021/06/19 02:26:03;;;;;;;28.48;16.67;;;;;;;;;;4859514;29;20032;-54
2021/06/19 02:28:29;;;;;;;31.90;15.57;;;;;;;;;;4893504;29;20502;-55
2021/06/19 02:30:58;;;;;;;24.38;15.07;;;;;;;;;;4891926;29;20035;-56
2021/06/19 02:33:24;;;;;;;25.90;14.95;;;;;;;;;;4892355;29;20098;-57
2021/06/19 02:35:50;;;;;;;30.92;16.52;;;;;;;;;;4893860;29;20127;-58
2021/06/19 02:38:19;;;;;;;34.33;16.08;;;;;;;;;;4892587;29;20127;-56
2021/06/19 02:40:48;;;;;;;24.65;16.00;;;;;;;;;;4890340;29;20040;-56
2021/06/19 02:43:16;;;;;;;28.98;17.08;;;;;;;;;;4876519;29;20024;-56
2021/06/19 02:45:44;;;;;;;29.13;17.60;;;;;;;;;;4893731;29;20055;-56
2021/06/19 02:48:09;;;;;;;29.58;17.05;;;;;;;;;;4891694;29;20520;-57
2021/06/19 02:50:39;;;;;;;44.65;17.15;;;;;;;;;;4891820;29;20024;-57
2021/06/19 02:53:11;;;;;;;25.95;15.38;;;;;;;;;;4891765;29;20135;-57
2021/06/19 02:55:41;;;;;;;25.17;14.90;;;;;;;;;;4891518;29;20764;-57
2021/06/19 02:58:09;;;;;;;30.50;16.55;;;;;;;;;;4893529;29;20523;-57
2021/06/19 03:00:36;;;;;;;23.48;15.13;;;;;;;;;;4892915;29;20059;-57
2021/06/19 03:03:01;;;;;;;25.15;15.85;;;;;;;;;;4892194;29;20032;-57
2021/06/19 03:05:28;;;;;;;31.63;16.23;;;;;;;;;;4891974;29;20056;-58
2021/06/19 03:07:56;;;;;;;26.23;15.73;;;;;;;;;;4892897;29;20031;-57
2021/06/19 03:10:27;;;;;;;27.65;15.85;;;;;;;;;;4893594;29;20028;-57
2021/06/19 03:12:55;;;;;;;29.85;16.88;;;;;;;;;;4894007;29;20352;-57
2021/06/19 03:15:24;;;;;;;26.95;15.65;;;;;;;;;;4889976;29;20757;-58
2021/06/19 03:17:54;;;;;;;28.40;15.20;;;;;;;;;;4890199;29;20028;-57
2021/06/19 03:20:24;;;;;;;30.38;16.73;;;;;;;;;;4874957;29;20156;-57
2021/06/19 03:22:53;;;;;;;28.85;15.75;;;;;;;;;;4874821;29;20111;-58
2021/06/19 03:25:23;;;;;;;29.52;16.67;;;;;;;;;;4891253;29;20067;-58
2021/06/19 03:27:52;;;;;;;28.95;16.27;;;;;;;;;;4892666;29;20032;-58
2021/06/19 03:30:23;;;;;;;27.95;14.75;;;;;;;;;;4892904;29;20823;-58
2021/06/19 03:32:54;;;;;;;30.33;17.17;;;;;;;;;;4877879;29;20040;-56
2021/06/19 03:35:22;;;;;;;27.35;16.40;;;;;;;;;;4893476;29;20641;-57
2021/06/19 03:37:53;;;;;;;30.50;16.55;;;;;;;;;;4891466;29;20044;-59
2021/06/19 03:40:22;;;;;;;25.60;15.02;;;;;;;;;;4891220;29;20115;-57
2021/06/19 03:42:50;;;;;;;25.05;15.18;;;;;;;;;;4892580;29;20067;-57
2021/06/19 03:45:22;;;;;;;28.67;14.38;;;;;;;;;;4890952;29;20768;-57
2021/06/19 03:47:49;;;;;;;26.55;14.68;;;;;;;;;;4891746;29;20111;-58
2021/06/19 03:50:18;;;;;;;20.95;13.85;;;;;;;;;;4892041;29;20032;-59
2021/06/19 03:52:44;;;;;;;24.23;14.38;;;;;;;;;;4890107;29;20028;-57
2021/06/19 03:55:10;;;;;;;33.15;15.27;;;;;;;;;;4889364;29;22023;-57
2021/06/19 03:57:38;;;;;;;24.38;14.77;;;;;;;;;;4872099;29;20032;-58
2021/06/19 04:00:11;;;;;;;31.67;13.95;;;;;;;;;;4890466;29;20036;-59
2021/06/19 04:02:39;;;;;;;24.88;15.05;;;;;;;;;;4891361;29;20024;-58
2021/06/19 04:05:15;;;;;;;25.75;14.95;;;;;;;;;;4873877;29;20047;-59
2021/06/19 04:07:41;;;;;;;24.77;13.43;;;;;;;;;;4889602;29;20095;-58
2021/06/19 04:10:07;;;;;;;23.90;14.02;;;;;;;;;;4890032;29;20161;-59
2021/06/19 04:12:38;;;;;;;25.02;15.25;;;;;;;;;;4855807;29;20446;-58
2021/06/19 04:15:05;;;;;;;28.50;13.77;;;;;;;;;;4871946;29;20488;-57
2021/06/19 04:17:33;;;;;;;27.15;14.25;;;;;;;;;;4872149;29;20032;-57
2021/06/19 04:20:01;;;;;;;25.08;14.45;;;;;;;;;;4872404;29;20037;-58
2021/06/19 04:22:27;;;;;;;25.17;14.20;;;;;;;;;;4872987;29;20819;-58
2021/06/19 04:24:55;;;;;;;28.25;15.88;;;;;;;;;;4870329;29;20053;-57
2021/06/19 04:27:20;;;;;;;25.33;14.55;;;;;;;;;;4871508;29;20028;-57
2021/06/19 04:29:46;;;;;;;23.75;14.32;;;;;;;;;;4870441;29;20111;-59
2021/06/19 04:32:15;;;;;;;28.73;13.80;;;;;;;;;;4884129;29;21169;-57
2021/06/19 04:34:43;;;;;;;23.67;15.02;;;;;;;;;;4886075;29;20146;-58
2021/06/19 04:37:14;;;;;;;27.92;13.50;;;;;;;;;;4870230;29;20032;-57
2021/06/19 04:40:18;;;;;;;23.70;12.68;;;;;;;;;;4872070;29;20032;-57
2021/06/19 04:42:41;;;;;;;25.20;13.55;;;;;;;;;;4869317;29;20049;-59
2021/06/19 04:45:09;;;;;;;19.52;12.07;;;;;;;;;;4871754;29;20051;-57
2021/06/19 04:47:38;;;;;;;14.93;10.60;;;;;;;;;;4871729;29;20033;-59
2021/06/19 04:50:08;;;;;;;19.17;11.50;;;;;;;;;;4887203;29;20033;-57
2021/06/19 04:52:39;;;;;;;18.60;12.40;;;;;;;;;;4869849;29;20817;-57
2021/06/19 04:55:09;;;;;;;17.08;12.05;;;;;;;;;;4871963;29;20067;-57
2021/06/19 04:57:34;;;;;;;21.27;11.88;;;;;;;;;;4873038;29;20476;-58
2021/06/19 04:59:59;;;;;;;17.05;11.57;;;;;;;;;;4871887;29;20080;-58
2021/06/19 05:02:25;;;;;;;20.00;10.85;;;;;;;;;;4884839;29;20049;-58
2021/06/19 05:04:53;;;;;;;20.00;11.57;;;;;;;;;;4870095;29;20681;-58
2021/06/19 05:07:18;;;;;;;16.08;10.50;;;;;;;;;;4871385;29;20091;-57
2021/06/19 05:09:47;;;;;;;16.20;9.85;;;;;;;;;;4886566;29;20476;-57
2021/06/19 05:12:12;;;;;;;14.68;9.85;;;;;;;;;;4870725;29;20033;-58
2021/06/19 05:14:40;;;;;;;15.45;10.70;;;;;;;;;;4885031;29;20135;-58
2021/06/19 05:17:06;;;;;;;17.88;10.38;;;;;;;;;;4869109;29;20039;-58
2021/06/19 05:19:34;;;;;;;16.67;9.63;;;;;;;;;;4883528;29;20048;-58
2021/06/19 05:22:04;;;;;;;15.15;10.05;;;;;;;;;;4873692;29;20044;-58
2021/06/19 05:24:30;;;;;;;15.38;9.70;;;;;;;;;;4883411;29;20051;-59
2021/06/19 05:26:55;;;;;;;21.30;9.82;;;;;;;;;;4868654;29;20048;-60
2021/06/19 05:29:21;;;;;;;18.23;11.15;;;;;;;;;;4871120;29;20496;-59
2021/06/19 05:31:47;;;;;;;18.35;11.25;;;;;;;;;;4869759;29;20039;-57
2021/06/19 05:34:15;;;;;;;19.75;11.20;;;;;;;;;;4871334;29;20065;-58
2021/06/19 05:36:43;;;;;;;20.10;11.13;;;;;;;;;;4885202;29;20728;-58
2021/06/19 05:39:14;;;;;;;23.05;11.02;;;;;;;;;;4870166;29;20473;-58
2021/06/19 05:41:39;;;;;;;26.50;11.93;;;;;;;;;;4885471;29;20048;-58
2021/06/19 05:44:11;;;;;;;21.90;11.88;;;;;;;;;;4884302;29;20044;-58
2021/06/19 05:46:37;;;;;;;22.75;11.73;;;;;;;;;;4871038;29;20036;-58
2021/06/19 05:49:05;;;;;;;24.02;11.55;;;;;;;;;;4871785;29;20037;-57
2021/06/19 05:51:34;;;;;;;17.17;10.38;;;;;;;;;;4871134;29;20660;-58
2021/06/19 05:54:00;;;;;;;17.20;10.38;;;;;;;;;;4870946;29;20119;-57
2021/06/19 05:56:28;;;;;;;17.85;10.05;;;;;;;;;;4872350;29;20036;-59
2021/06/19 05:58:53;;;;;;;18.02;8.73;;;;;;;;;;4872833;29;20043;-58
2021/06/19 06:01:19;;;;;;;13.27;7.15;;;;;;;;;;4874059;29;20059;-58
2021/06/19 06:03:44;;;;;;;12.35;6.93;;;;;;;;;;4887081;29;20044;-58
2021/06/19 06:06:17;;;;;;;10.63;5.80;;;;;;;;;;4874009;29;20262;-58
2021/06/19 06:08:45;;;;;;;8.35;5.55;;;;;;;;;;4873157;29;20643;-59
2021/06/19 06:11:13;;;;;;;9.52;5.80;;;;;;;;;;4888285;29;20036;-59
2021/06/19 06:13:38;;;;;;;11.27;6.43;;;;;;;;;;4871791;29;20131;-58
2021/06/19 06:16:05;;;;;;;10.52;6.25;;;;;;;;;;4874016;29;20020;-58
2021/06/19 06:18:31;;;;;;;7.82;5.55;;;;;;;;;;4873136;29;20036;-59
2021/06/19 06:20:56;;;;;;;10.65;6.38;;;;;;;;;;4873112;29;20041;-57
2021/06/19 06:23:23;;;;;;;9.90;6.50;;;;;;;;;;4871947;29;20127;-59
2021/06/19 06:25:52;;;;;;;8.18;5.72;;;;;;;;;;4872741;29;20680;-60
2021/06/19 06:28:22;;;;;;;9.75;6.43;;;;;;;;;;4871909;29;20033;-58
2021/06/19 06:30:50;;;;;;;11.15;7.00;;;;;;;;;;4889682;29;20068;-58
2021/06/19 06:33:16;;;;;;;9.85;5.88;;;;;;;;;;4885798;29;21208;-58
2021/06/19 06:35:46;;;;;;;9.55;7.10;;;;;;;;;;4873536;29;20036;-58
2021/06/19 06:38:12;;;;;;;9.20;5.60;;;;;;;;;;4887641;29;20033;-58
2021/06/19 06:40:38;;;;;;;8.50;6.30;;;;;;;;;;4873165;29;20042;-59
2021/06/19 06:43:03;;;;;;;8.30;5.78;;;;;;;;;;4873131;29;20044;-59
2021/06/19 06:45:32;;;;;;;9.43;6.70;;;;;;;;;;4869233;29;20520;-59
2021/06/19 06:47:57;;;;;;;9.40;6.20;;;;;;;;;;4887306;29;20036;-59
2021/06/19 06:50:26;;;;;;;8.23;6.20;;;;;;;;;;4874762;29;20025;-59
2021/06/19 06:52:52;;;;;;;10.48;6.57;;;;;;;;;;4874345;29;20029;-59
2021/06/19 06:55:22;;;;;;;8.88;5.68;;;;;;;;;;4889966;29;20036;-59
2021/06/19 06:57:50;;;;;;;8.60;5.97;;;;;;;;;;4874463;29;20039;-58
2021/06/19 07:00:16;;;;;;;12.10;5.75;;;;;;;;;;4873338;29;20052;-61
2021/06/19 07:02:43;;;;;;;9.02;6.03;;;;;;;;;;4872788;29;20064;-58
2021/06/19 07:05:11;;;;;;;8.88;5.32;;;;;;;;;;4873317;29;20060;-59
2021/06/19 07:07:40;;;;;;;9.75;5.53;;;;;;;;;;4872943;29;20037;-58
2021/06/19 07:10:10;;;;;;;10.57;6.13;;;;;;;;;;4873779;29;20041;-59
2021/06/19 07:12:41;;;;;;;8.20;5.80;;;;;;;;;;4875367;29;20032;-58
2021/06/19 07:15:10;;;;;;;9.15;6.00;;;;;;;;;;4890565;29;20693;-59
2021/06/19 07:17:38;;;;;;;9.00;6.03;;;;;;;;;;4889980;29;20516;-59
2021/06/19 07:20:06;;;;;;;9.70;5.45;;;;;;;;;;4892027;29;20113;-59
2021/06/19 07:22:34;;;;;;;9.02;5.72;;;;;;;;;;4891687;29;20040;-59
2021/06/19 07:25:01;;;;;;;7.72;5.28;;;;;;;;;;4875179;29;20052;-60
2021/06/19 07:27:26;;;;;;;8.90;5.70;;;;;;;;;;4891912;29;20047;-58
2021/06/19 07:29:54;;;;;;;9.77;6.55;;;;;;;;;;4893394;29;20139;-58
2021/06/19 07:32:20;;;;;;;10.15;6.40;;;;;;;;;;4890964;29;22162;-59
2021/06/19 07:34:45;;;;;;;14.82;7.07;;;;;;;;;;4875505;29;20036;-59
2021/06/19 07:37:13;;;;;;;10.85;7.50;;;;;;;;;;4878728;29;20028;-58
2021/06/19 07:39:41;;;;;;;14.07;8.20;;;;;;;;;;4891103;29;20095;-58
2021/06/19 07:42:09;;;;;;;18.45;7.90;;;;;;;;;;4890986;29;20036;-57
2021/06/19 07:44:37;;;;;;;12.30;8.13;;;;;;;;;;4888543;29;20032;-58
2021/06/19 07:47:04;;;;;;;12.48;8.00;;;;;;;;;;4891746;29;20028;-59
2021/06/19 07:49:30;;;;;;;12.35;7.57;;;;;;;;;;4888898;29;20032;-58
2021/06/19 07:52:10;;;;;;;11.77;7.57;;;;;;;;;;4891361;29;22127;-58
2021/06/19 07:54:38;;;;;;;14.30;7.18;;;;;;;;;;4876419;29;20951;-60
2021/06/19 07:57:08;;;;;;;12.70;7.82;;;;;;;;;;4892662;29;21052;-59
2021/06/19 07:59:34;;;;;;;14.27;7.85;;;;;;;;;;4892484;29;20134;-58
2021/06/19 08:02:01;;;;;;;12.18;6.82;;;;;;;;;;4890482;29;20151;-61
2021/06/19 08:04:28;;;;;;;13.32;7.53;;;;;;;;;;4891461;29;20032;-59
2021/06/19 08:06:56;;;;;;;16.15;7.57;;;;;;;;;;4875383;29;20040;-58
2021/06/19 08:09:24;;;;;;;13.52;7.10;;;;;;;;;;4876163;29;20122;-59
2021/06/19 08:11:52;;;;;;;12.60;6.82;;;;;;;;;;4856347;29;20070;-59
2021/06/19 08:14:28;;;;;;;9.10;5.90;;;;;;;;;;4885619;29;20823;-59
2021/06/19 08:16:56;;;;;;;10.55;6.20;;;;;;;;;;4873024;29;20532;-59
2021/06/19 08:19:24;;;;;;;9.25;6.00;;;;;;;;;;4870741;29;20047;-59
2021/06/19 08:21:50;;;;;;;10.10;5.28;;;;;;;;;;4887866;29;20058;-59
2021/06/19 08:24:20;;;;;;;9.73;4.93;;;;;;;;;;4888368;29;20040;-59
2021/06/19 08:26:48;;;;;;;7.65;4.95;;;;;;;;;;4872199;29;20122;-59
2021/06/19 08:29:13;;;;;;;10.52;5.18;;;;;;;;;;4874043;29;20144;-59
2021/06/19 08:31:46;;;;;;;9.25;5.00;;;;;;;;;;4887533;29;20040;-58
2021/06/19 08:34:14;;;;;;;7.45;5.22;;;;;;;;;;4887623;29;20079;-59
2021/06/19 08:36:44;;;;;;;7.70;4.70;;;;;;;;;;4888130;29;20132;-58
2021/06/19 08:39:14;;;;;;;7.57;4.97;;;;;;;;;;4872073;29;20718;-59
2021/06/19 08:41:48;;;;;;;14.43;5.47;;;;;;;;;;4873225;29;20861;-59
2021/06/19 08:44:21;;;;;;;9.30;5.72;;;;;;;;;;4885606;29;20093;-59
2021/06/19 08:46:50;;;;;;;9.10;4.80;;;;;;;;;;4868458;29;20124;-59
2021/06/19 08:49:21;;;;;;;7.07;4.43;;;;;;;;;;4871513;29;20033;-59
2021/06/19 08:51:53;;;;;;;7.50;4.15;;;;;;;;;;4870382;29;20037;-59
2021/06/19 08:54:21;;;;;;;5.90;4.43;;;;;;;;;;4887506;29;20090;-59
2021/06/19 08:56:47;;;;;;;6.18;4.50;;;;;;;;;;4873494;29;20254;-58
2021/06/19 08:59:13;;;;;;;6.85;4.40;;;;;;;;;;4871036;29;20060;-58
2021/06/19 09:01:41;;;;;;;8.88;4.57;;;;;;;;;;4886346;29;20040;-57
2021/06/19 09:04:09;;;;;;;8.77;4.88;;;;;;;;;;4854003;29;20062;-57
2021/06/19 09:06:40;;;;;;;7.40;4.60;;;;;;;;;;4873330;29;20339;-59
2021/06/19 09:09:15;;;;;;;7.05;3.83;;;;;;;;;;4870201;29;20060;-58
2021/06/19 09:11:45;;;;;;;7.18;4.22;;;;;;;;;;4873419;29;20088;-58
2021/06/19 09:14:11;;;;;;;5.75;3.90;;;;;;;;;;4872769;29;20050;-59
2021/06/19 09:16:40;;;;;;;8.30;4.50;;;;;;;;;;4890480;29;20036;-58
2021/06/19 09:19:25;;;;;;;7.82;4.20;;;;;;;;;;4890458;29;20554;-58
2021/06/19 09:22:10;;;;;;;8.65;5.20;;;;;;;;;;4891966;29;20200;-59
2021/06/19 09:24:55;;;;;;;8.35;5.20;;;;;;;;;;4891501;29;20385;-59
2021/06/19 09:27:49;;;;;;;6.78;4.50;;;;;;;;;;4891549;29;20036;-59
2021/06/19 09:30:19;;;;;;;11.10;4.80;;;;;;;;;;4872590;29;20043;-59
2021/06/19 09:32:49;;;;;;;4.57;3.70;;;;;;;;;;4878546;29;20048;-59
2021/06/19 09:35:24;;;;;;;5.93;3.95;;;;;;;;;;4895316;29;20031;-59
2021/06/19 09:37:52;;;;;;;;;;;;;;;;;;4896095;29;20036;-58
2021/06/19 09:40:23;;;;;;;4.77;3.70;;;;;;;;;;4865396;29;19919;-59
2021/06/19 09:42:51;;;;;;;9.82;4.60;;;;;;;;;;4894057;29;20320;-59
2021/06/19 09:45:17;;;;;;;6.90;4.85;;;;;;;;;;4895153;29;20040;-61
2021/06/19 09:47:48;;;;;;;4.45;4.03;;;;;;;;;;4891741;29;20115;-59
2021/06/19 09:50:18;;;;;;;4.65;4.15;;;;;;;;;;4877151;29;20032;-59
2021/06/19 09:52:46;;;;;;;7.75;4.72;;;;;;;;;;4878744;29;20119;-59
2021/06/19 09:55:15;;;;;;;5.72;3.88;;;;;;;;;;4895113;29;20028;-58
2021/06/19 09:57:44;;;;;;;5.65;4.55;;;;;;;;;;4893744;29;20044;-59
2021/06/19 10:00:11;;;;;;;4.85;4.35;;;;;;;;;;4891335;29;21090;-58
2021/06/19 10:02:38;;;;;;;6.15;4.10;;;;;;;;;;4890880;29;20102;-59
2021/06/19 10:05:06;;;;;;;5.22;4.00;;;;;;;;;;4893032;29;20040;-59
2021/06/19 10:07:37;;;;;;;4.68;4.22;;;;;;;;;;4876622;29;20047;-58
2021/06/19 10:10:07;;;;;;;4.25;3.80;;;;;;;;;;4894966;29;21931;-58
2021/06/19 10:12:33;;;;;;;5.43;4.72;;;;;;;;;;4876010;29;20032;-59
2021/06/19 10:15:00;;;;;;;4.95;4.30;;;;;;;;;;4892165;29;20123;-59
2021/06/19 10:17:38;;;;;;;5.38;4.63;;;;;;;;;;4894556;29;20032;-59
2021/06/19 10:20:08;;;;;;;6.20;4.93;;;;;;;;;;4892356;29;20380;-58
2021/06/19 10:22:37;;;;;;;8.05;6.03;;;;;;;;;;4892373;29;20052;-59
2021/06/19 10:25:08;;;;;;;7.30;5.28;;;;;;;;;;4894103;29;20556;-59
2021/06/19 10:27:39;;;;;;;5.95;5.03;;;;;;;;;;4892956;29;20376;-59
2021/06/19 10:30:08;;;;;;;6.90;4.85;;;;;;;;;;4893243;29;20143;-59
2021/06/19 10:32:44;;;;;;;8.60;4.85;;;;;;;;;;4891979;29;20036;-59
2021/06/19 10:35:15;;;;;;;5.32;4.25;;;;;;;;;;4894257;29;20060;-60
2021/06/19 10:37:47;;;;;;;5.95;4.15;;;;;;;;;;4894065;29;20035;-61
2021/06/19 10:40:24;;;;;;;5.68;4.50;;;;;;;;;;4894506;29;20043;-59
2021/06/19 10:42:50;;;;;;;5.32;4.40;;;;;;;;;;4876919;29;20091;-59
2021/06/19 10:45:36;;;;;;;4.60;3.92;;;;;;;;;;4892072;29;20052;-60
2021/06/19 10:48:09;;;;;;;4.35;3.90;;;;;;;;;;4890730;29;20099;-60
2021/06/19 10:50:38;;;;;;;4.13;3.63;;;;;;;;;;4892839;29;20119;-60
2021/06/19 10:53:04;;;;;;;4.88;4.38;;;;;;;;;;4876602;29;20056;-59
2021/06/19 10:55:32;;;;;;;4.82;4.07;;;;;;;;;;4893177;29;20032;-60
2021/06/19 10:58:03;;;;;;;4.30;3.88;;;;;;;;;;4876247;29;20128;-60
2021/06/19 11:00:48;;;;;;;4.68;4.28;;;;;;;;;;4876404;29;20036;-62
2021/06/19 11:03:15;;;;;;;5.85;4.72;;;;;;;;;;4892504;29;20058;-59
2021/06/19 11:05:43;;;;;;;5.07;4.22;;;;;;;;;;4892199;29;20047;-60
2021/06/19 11:08:09;;;;;;;4.85;4.32;;;;;;;;;;4892160;29;20028;-60
2021/06/19 11:10:54;;;;;;;4.35;3.95;;;;;;;;;;4892489;29;20152;-60
2021/06/19 11:13:34;;;;;;;5.53;4.47;;;;;;;;;;4893133;29;20612;-60
2021/06/19 11:16:25;;;;;;;4.75;4.22;;;;;;;;;;4890390;29;20896;-60
2021/06/19 11:18:54;;;;;;;4.95;3.63;;;;;;;;;;4869435;29;20099;-60
2021/06/19 11:21:25;;;;;;;4.10;3.75;;;;;;;;;;4876719;29;20039;-60
2021/06/19 11:24:00;;;;;;;4.30;3.83;;;;;;;;;;4874743;29;20036;-59
2021/06/19 11:26:45;;;;;;;5.55;4.13;;;;;;;;;;4892816;29;20036;-61
2021/06/19 11:29:32;;;;;;;5.18;4.30;;;;;;;;;;4893528;29;20036;-62
2021/06/19 11:32:17;;;;;;;5.15;4.00;;;;;;;;;;4891137;29;20028;-61
2021/06/19 11:34:43;;;;;;;5.45;3.92;;;;;;;;;;4874148;29;20032;-59
2021/06/19 11:37:08;;;;;;;4.85;4.05;;;;;;;;;;4876125;29;20070;-60
2021/06/19 11:39:34;;;;;;;10.90;5.07;;;;;;;;;;4890487;29;20055;-61
2021/06/19 11:42:02;;;;;;;6.90;5.32;;;;;;;;;;4876161;29;21398;-60
2021/06/19 11:44:32;;;;;;;6.63;5.70;;;;;;;;;;4893382;29;20115;-60
2021/06/19 11:46:58;;;;;;;6.45;5.63;;;;;;;;;;4889025;29;20940;-59
2021/06/19 11:49:25;;;;;;;6.80;6.10;;;;;;;;;;4891326;29;20102;-60
2021/06/19 11:51:56;;;;;;;6.22;5.63;;;;;;;;;;4891786;29;20027;-58
2021/06/19 11:54:23;;;;;;;7.68;5.22;;;;;;;;;;4889867;29;20051;-61
2021/06/19 11:56:51;;;;;;;6.78;5.82;;;;;;;;;;4890216;29;20036;-61
2021/06/19 11:59:17;;;;;;;6.07;5.38;;;;;;;;;;4889699;29;21104;-59
2021/06/19 12:01:47;;;;;;;6.30;5.70;;;;;;;;;;4873740;29;20047;-60
2021/06/19 12:04:25;;;;;;;6.85;4.97;;;;;;;;;;4891719;29;20087;-60
2021/06/19 12:06:52;;;;;;;5.72;5.15;;;;;;;;;;4892959;29;20063;-59
2021/06/19 12:09:18;;;;;;;4.72;4.28;;;;;;;;;;4890677;29;20039;-61
2021/06/19 12:11:51;;;;;;;7.05;4.68;;;;;;;;;;4874848;29;20039;-60
2021/06/19 12:14:36;;;;;;;5.05;4.57;;;;;;;;;;4891725;29;20044;-60
2021/06/19 12:17:11;;;;;;;5.47;4.82;;;;;;;;;;5100135;27;22178;-59
2021/06/19 12:19:44;;;;;;;6.05;5.32;;;;;;;;;;5072263;28;20032;-59
2021/06/19 12:22:16;;;;;;;6.18;4.68;;;;;;;;;;5073087;28;20050;-59
2021/06/19 12:24:46;;;;;;;6.85;4.60;;;;;;;;;;5088954;27;20031;-61
2021/06/19 12:27:17;;;;;;;7.65;5.22;;;;;;;;;;5074606;28;20032;-59
2021/06/19 12:29:53;;;;;;;4.47;4.07;;;;;;;;;;5071783;28;20054;-60
2021/06/19 12:32:25;;;;;;;5.22;3.95;;;;;;;;;;5088164;27;20604;-60
2021/06/19 12:34:51;;;;;;;3.88;3.58;;;;;;;;;;5074609;28;20119;-60
2021/06/19 12:37:23;;;;;;;3.78;3.47;;;;;;;;;;5088077;27;20166;-60
2021/06/19 12:39:49;;;;;;;4.25;3.85;;;;;;;;;;5088759;27;20112;-60
2021/06/19 12:42:35;;;;;;;3.72;3.40;;;;;;;;;;5072170;28;20051;-59
2021/06/19 12:45:12;;;;;;;3.33;3.03;;;;;;;;;;5087414;27;20044;-58
2021/06/19 12:47:43;;;;;;;4.78;3.38;;;;;;;;;;5072505;28;20036;-59
2021/06/19 12:50:09;;;;;;;3.90;2.92;;;;;;;;;;5069502;28;20048;-59
2021/06/19 12:52:37;;;;;;;6.55;3.65;;;;;;;;;;5071403;28;20028;-60
2021/06/19 12:55:09;;;;;;;4.20;3.10;;;;;;;;;;5070686;28;20085;-60
2021/06/19 12:57:35;;;;;;;3.35;3.05;;;;;;;;;;5078741;28;20115;-60
2021/06/19 13:00:00;;;;;;;5.00;2.78;;;;;;;;;;5072044;28;20054;-61
2021/06/19 13:02:28;;;;;;;4.10;2.90;;;;;;;;;;5069760;28;20036;-60
2021/06/19 13:04:53;;;;;;;3.03;2.72;;;;;;;;;;5070839;28;20039;-59
2021/06/19 13:07:28;;;;;;;2.72;2.53;;;;;;;;;;5072549;28;20023;-59
2021/06/19 13:09:54;;;;;;;2.60;2.30;;;;;;;;;;5071299;28;20057;-59
2021/06/19 13:12:25;;;;;;;3.22;2.92;;;;;;;;;;5086595;27;20027;-59
2021/06/19 13:15:03;;;;;;;2.95;2.63;;;;;;;;;;5071518;28;20028;-59
2021/06/19 13:17:40;;;;;;;2.63;2.42;;;;;;;;;;5071142;28;20082;-60
2021/06/19 13:20:22;;;;;;;3.70;2.65;;;;;;;;;;5055811;28;20015;-60
2021/06/19 13:23:03;;;;;;;3.28;2.38;;;;;;;;;;5060690;28;20043;-59
2021/06/19 13:25:48;;;;;;;2.65;2.30;;;;;;;;;;5070886;28;20048;-62
2021/06/19 13:28:14;;;;;;;3.25;2.95;;;;;;;;;;5074445;27;20475;-59
2021/06/19 13:30:39;;;;;;;5.75;2.90;;;;;;;;;;5062279;28;20154;-59
2021/06/19 13:33:07;;;;;;;3.53;3.17;;;;;;;;;;5047450;28;20174;-59
2021/06/19 13:35:48;;;;;;;5.53;4.03;;;;;;;;;;5055584;28;20033;-59
2021/06/19 13:38:15;;;;;;;4.82;4.18;;;;;;;;;;5037325;28;20558;-61
2021/06/19 13:40:40;;;;;;;4.38;3.90;;;;;;;;;;5057176;28;20036;-59
2021/06/19 13:43:08;;;;;;;4.85;4.07;;;;;;;;;;5058389;28;20040;-58
2021/06/19 13:45:36;;;;;;;4.70;4.30;;;;;;;;;;5057663;28;20052;-60
2021/06/19 13:48:05;;;;;;;5.70;3.85;;;;;;;;;;5057862;28;20421;-60
2021/06/19 13:50:33;;;;;;;6.97;4.60;;;;;;;;;;5055123;28;20040;-61
2021/06/19 13:53:05;;;;;;;4.60;4.15;;;;;;;;;;5055818;28;20040;-59
2021/06/19 13:55:30;;;;;;;6.03;4.70;;;;;;;;;;5057278;28;20040;-60
2021/06/19 13:57:56;;;;;;;5.40;4.32;;;;;;;;;;5057094;28;22090;-60
2021/06/19 14:00:22;;;;;;;6.82;5.03;;;;;;;;;;5072648;28;20172;-59
2021/06/19 14:02:50;;;;;;;5.38;4.57;;;;;;;;;;5059735;28;20101;-60
2021/06/19 14:05:18;;;;;;;6.00;5.43;;;;;;;;;;5056840;28;20078;-59
2021/06/19 14:07:44;;;;;;;10.48;5.63;;;;;;;;;;5057011;28;20125;-60
2021/06/19 14:10:10;;;;;;;7.95;6.00;;;;;;;;;;5055875;28;20032;-60
2021/06/19 14:12:38;;;;;;;7.18;5.97;;;;;;;;;;5058123;28;20763;-59
2021/06/19 14:15:04;;;;;;;9.13;6.72;;;;;;;;;;5053918;28;22027;-61
2021/06/19 14:17:32;;;;;;;6.65;5.82;;;;;;;;;;5072012;28;20482;-60
2021/06/19 14:20:05;;;;;;;8.65;6.35;;;;;;;;;;5055942;28;20111;-58
2021/06/19 14:22:31;;;;;;;7.07;6.32;;;;;;;;;;5058363;28;20050;-60
2021/06/19 14:24:58;;;;;;;6.15;5.55;;;;;;;;;;5048765;28;20035;-60
2021/06/19 14:27:30;;;;;;;9.68;5.93;;;;;;;;;;5043647;28;20036;-59
2021/06/19 14:29:56;;;;;;;8.90;7.13;;;;;;;;;;5055661;28;20102;-61
2021/06/19 14:32:22;;;;;;;11.82;6.78;;;;;;;;;;5058293;28;20032;-60
2021/06/19 14:34:48;;;;;;;9.35;6.35;;;;;;;;;;5041121;28;20067;-59
2021/06/19 14:37:15;;;;;;;11.25;7.28;;;;;;;;;;5040954;28;20032;-60
2021/06/19 14:39:44;;;;;;;7.00;5.78;;;;;;;;;;5056154;28;20028;-59
2021/06/19 14:42:11;;;;;;;7.20;6.10;;;;;;;;;;5066149;28;20047;-60
2021/06/19 14:44:36;;;;;;;10.23;6.70;;;;;;;;;;5057914;28;20033;-61